Time;durP1;ratioP1;P1;durP2;ratioP2;P2;SDS_P1;SDS_P2;PMS_P1;PMS_P2;Temp;Humidity;BMP_temperature;BMP_pressure;BME280_temperature;BME280_humidity;BME280_pressure;Samples;Min_cycle;Max_cycle;Signal;HPM_P1;HPM_P2
2024/01/07 00:02:11;;;;;;;0.00;0.00;;;;;;;;;;5020508;28;20036;-93
2024/01/07 00:04:37;;;;;;;0.00;0.00;;;;;;;;;;5053708;28;20040;-95
2024/01/07 00:07:04;;;;;;;0.00;0.00;;;;;;;;;;5054491;28;20358;-95
2024/01/07 00:09:29;;;;;;;0.00;0.00;;;;;;;;;;5020197;28;20055;-95
2024/01/07 00:11:55;;;;;;;0.00;0.00;;;;;;;;;;5036385;28;20021;-95
2024/01/07 00:14:20;;;;;;;0.00;0.00;;;;;;;;;;5036457;28;20029;-94
2024/01/07 00:16:46;;;;;;;0.00;0.00;;;;;;;;;;5036750;28;20029;-95
2024/01/07 00:19:11;;;;;;;0.00;0.00;;;;;;;;;;5052820;28;20027;-94
2024/01/07 00:21:38;;;;;;;0.00;0.00;;;;;;;;;;5052849;28;20086;-94
2024/01/07 00:24:03;;;;;;;0.00;0.00;;;;;;;;;;5036561;28;20366;-94
2024/01/07 00:26:29;;;;;;;0.00;0.00;;;;;;;;;;5020039;28;20029;-94
2024/01/07 00:29:13;;;;;;;0.00;0.00;;;;;;;;;;5036376;28;20025;-94
2024/01/07 00:31:38;;;;;;;0.00;0.00;;;;;;;;;;5038810;28;20020;-93
2024/01/07 00:34:04;;;;;;;0.00;0.00;;;;;;;;;;5019660;28;20036;-95
2024/01/07 00:36:29;;;;;;;0.00;0.00;;;;;;;;;;5054454;28;20021;-95
2024/01/07 00:38:55;;;;;;;0.00;0.00;;;;;;;;;;5072512;28;20040;-94
2024/01/07 00:41:20;;;;;;;0.00;0.00;;;;;;;;;;5056101;28;20040;-94
2024/01/07 00:43:46;;;;;;;0.00;0.00;;;;;;;;;;5072704;28;20029;-93
2024/01/07 00:46:11;;;;;;;0.00;0.00;;;;;;;;;;5059889;28;20036;-92
2024/01/07 00:48:37;;;;;;;0.00;0.00;;;;;;;;;;5060526;28;20055;-93
2024/01/07 00:51:03;;;;;;;0.00;0.00;;;;;;;;;;5076607;28;20499;-92
2024/01/07 00:53:32;;;;;;;0.00;0.00;;;;;;;;;;5086330;28;20458;-93
2024/01/07 00:55:57;;;;;;;0.00;0.00;;;;;;;;;;5070055;28;20151;-91
2024/01/07 00:58:23;;;;;;;0.00;0.00;;;;;;;;;;5086085;28;20059;-94
2024/01/07 01:00:49;;;;;;;0.00;0.00;;;;;;;;;;5070948;28;20028;-94
2024/01/07 01:03:14;;;;;;;0.00;0.00;;;;;;;;;;5085360;28;20032;-94
2024/01/07 01:05:40;;;;;;;0.00;0.00;;;;;;;;;;5076723;28;20032;-95
2024/01/07 01:08:05;;;;;;;0.00;0.00;;;;;;;;;;5059992;28;20048;-94
2024/01/07 01:10:31;;;;;;;0.00;0.00;;;;;;;;;;5043032;28;20034;-96
2024/01/07 01:12:56;;;;;;;0.00;0.00;;;;;;;;;;5043254;28;20442;-95
2024/01/07 01:15:22;;;;;;;0.00;0.00;;;;;;;;;;5059768;28;20029;-93
2024/01/07 01:17:48;;;;;;;0.00;0.00;;;;;;;;;;5043064;28;20028;-93
2024/01/07 01:20:14;;;;;;;0.00;0.00;;;;;;;;;;5059328;28;20025;-94
2024/01/07 01:22:40;;;;;;;0.00;0.00;;;;;;;;;;5064115;28;20029;-93
2024/01/07 01:25:06;;;;;;;0.00;0.00;;;;;;;;;;5084484;28;20039;-94
2024/01/07 01:27:31;;;;;;;0.00;0.00;;;;;;;;;;5080538;28;20032;-94
2024/01/07 01:29:57;;;;;;;0.00;0.00;;;;;;;;;;5047326;28;20070;-94
2024/01/07 01:32:22;;;;;;;0.00;0.00;;;;;;;;;;5043390;28;20135;-94
2024/01/07 01:34:48;;;;;;;0.00;0.00;;;;;;;;;;5042360;28;20032;-93
2024/01/07 01:37:13;;;;;;;0.00;0.00;;;;;;;;;;5067258;28;20029;-92
2024/01/07 01:39:42;;;;;;;0.00;0.00;;;;;;;;;;5033413;28;20037;-92
2024/01/07 01:42:07;;;;;;;0.00;0.00;;;;;;;;;;5046903;28;20029;-91
2024/01/07 01:44:33;;;;;;;0.00;0.00;;;;;;;;;;5055908;28;20041;-93
2024/01/07 01:47:00;;;;;;;0.00;0.00;;;;;;;;;;5038665;28;20047;-93
2024/01/07 01:49:26;;;;;;;0.00;0.00;;;;;;;;;;5022770;28;20036;-93
2024/01/07 01:51:52;;;;;;;0.00;0.00;;;;;;;;;;5024216;28;20021;-93
2024/01/07 01:54:18;;;;;;;0.00;0.00;;;;;;;;;;5028530;28;20123;-92
2024/01/07 01:56:44;;;;;;;0.00;0.00;;;;;;;;;;5041517;28;20064;-93
2024/01/07 01:59:09;;;;;;;0.00;0.00;;;;;;;;;;5022336;28;20028;-93
2024/01/07 02:01:35;;;;;;;0.00;0.00;;;;;;;;;;5021891;28;20025;-95
2024/01/07 02:04:01;;;;;;;0.00;0.00;;;;;;;;;;5056312;28;20059;-93
2024/01/07 02:06:26;;;;;;;0.00;0.00;;;;;;;;;;5039063;28;20055;-95
2024/01/07 02:08:52;;;;;;;0.00;0.00;;;;;;;;;;5039576;28;20141;-91
2024/01/07 02:11:19;;;;;;;0.00;0.00;;;;;;;;;;5022822;28;20029;-95
2024/01/07 02:13:45;;;;;;;0.00;0.00;;;;;;;;;;5039022;28;20200;-95
2024/01/07 02:16:10;;;;;;;0.00;0.00;;;;;;;;;;5038943;28;20060;-93
2024/01/07 02:18:36;;;;;;;0.00;0.00;;;;;;;;;;5055527;28;20029;-96
2024/01/07 02:21:02;;;;;;;0.00;0.00;;;;;;;;;;5021827;28;20132;-93
2024/01/07 02:23:27;;;;;;;0.00;0.00;;;;;;;;;;5055005;28;20025;-93
2024/01/07 02:25:53;;;;;;;0.00;0.00;;;;;;;;;;5038164;28;20033;-94
2024/01/07 02:28:18;;;;;;;0.00;0.00;;;;;;;;;;5038597;28;20025;-95
2024/01/07 02:30:44;;;;;;;0.00;0.00;;;;;;;;;;5021354;28;20029;-94
2024/01/07 02:33:09;;;;;;;0.00;0.00;;;;;;;;;;5037715;28;20037;-94
2024/01/07 02:35:35;;;;;;;0.00;0.00;;;;;;;;;;5038240;28;20036;-94
2024/01/07 02:38:00;;;;;;;0.00;0.00;;;;;;;;;;5038053;28;20443;-94
2024/01/07 02:40:26;;;;;;;0.00;0.00;;;;;;;;;;5053819;28;20417;-94
2024/01/07 02:42:51;;;;;;;0.00;0.00;;;;;;;;;;5037535;28;20025;-95
2024/01/07 02:45:17;;;;;;;0.00;0.00;;;;;;;;;;5038071;28;20021;-95
2024/01/07 02:47:42;;;;;;;0.00;0.00;;;;;;;;;;5037748;28;20025;-92
2024/01/07 02:50:09;;;;;;;0.00;0.00;;;;;;;;;;5054165;28;20052;-93
2024/01/07 02:52:34;;;;;;;0.00;0.00;;;;;;;;;;5057129;28;20486;-95
2024/01/07 02:55:01;;;;;;;0.00;0.00;;;;;;;;;;5060443;28;20033;-94
2024/01/07 02:57:27;;;;;;;0.00;0.00;;;;;;;;;;5061910;28;20067;-94
2024/01/07 02:59:53;;;;;;;0.00;0.00;;;;;;;;;;5049902;28;20020;-88
2024/01/07 03:02:19;;;;;;;0.00;0.00;;;;;;;;;;5044398;28;20043;-86
2024/01/07 03:04:44;;;;;;;0.00;0.00;;;;;;;;;;5077457;28;20032;-93
2024/01/07 03:07:11;;;;;;;0.00;0.00;;;;;;;;;;5059886;28;20021;-92
2024/01/07 03:09:37;;;;;;;0.00;0.00;;;;;;;;;;5063259;28;20024;-94
2024/01/07 03:12:02;;;;;;;0.00;0.00;;;;;;;;;;5060581;28;20032;-87
2024/01/07 03:14:28;;;;;;;0.00;0.00;;;;;;;;;;5077909;28;20009;-86
2024/01/07 03:16:53;;;;;;;0.00;0.00;;;;;;;;;;5077085;28;20066;-88
2024/01/07 03:19:20;;;;;;;0.00;0.00;;;;;;;;;;5060463;28;20032;-87
2024/01/07 03:21:46;;;;;;;0.00;0.00;;;;;;;;;;5060940;28;20028;-86
2024/01/07 03:24:12;;;;;;;0.00;0.00;;;;;;;;;;5043918;28;20112;-86
2024/01/07 03:26:37;;;;;;;0.00;0.00;;;;;;;;;;5077068;28;20021;-88
2024/01/07 03:29:04;;;;;;;0.00;0.00;;;;;;;;;;5076902;28;20033;-88
2024/01/07 03:31:30;;;;;;;0.00;0.00;;;;;;;;;;5077582;28;20052;-90
2024/01/07 03:33:55;;;;;;;0.00;0.00;;;;;;;;;;5059641;28;20024;-92
2024/01/07 03:36:21;;;;;;;0.00;0.00;;;;;;;;;;5060346;28;20025;-87
2024/01/07 03:38:47;;;;;;;0.00;0.00;;;;;;;;;;5060480;28;20025;-91
2024/01/07 03:41:17;;;;;;;0.00;0.00;;;;;;;;;;5076962;28;20097;-89
2024/01/07 03:43:43;;;;;;;0.00;0.00;;;;;;;;;;5043116;28;20061;-93
2024/01/07 03:46:08;;;;;;;0.00;0.00;;;;;;;;;;5037588;28;20107;-93
2024/01/07 03:48:34;;;;;;;0.00;0.00;;;;;;;;;;5054573;28;20123;-93
2024/01/07 03:50:59;;;;;;;0.00;0.00;;;;;;;;;;5054119;28;20119;-93
2024/01/07 03:53:25;;;;;;;0.00;0.00;;;;;;;;;;5037146;28;20036;-94
2024/01/07 03:55:50;;;;;;;0.00;0.00;;;;;;;;;;5037290;28;20040;-94
2024/01/07 03:58:16;;;;;;;0.00;0.00;;;;;;;;;;5053342;28;20029;-94
2024/01/07 04:00:42;;;;;;;0.00;0.00;;;;;;;;;;5036816;28;20025;-92
2024/01/07 04:03:07;;;;;;;0.00;0.00;;;;;;;;;;5053333;28;20029;-93
2024/01/07 04:05:33;;;;;;;0.00;0.00;;;;;;;;;;5053035;28;20028;-94
2024/01/07 04:08:01;;;;;;;0.00;0.00;;;;;;;;;;5054113;28;20045;-93
2024/01/07 04:10:26;;;;;;;0.00;0.00;;;;;;;;;;5036758;28;20029;-94
2024/01/07 04:12:52;;;;;;;0.00;0.00;;;;;;;;;;5021361;28;20439;-93
2024/01/07 04:15:17;;;;;;;0.00;0.00;;;;;;;;;;5021092;28;20126;-93
2024/01/07 04:17:44;;;;;;;0.00;0.00;;;;;;;;;;5055089;28;20060;-94
2024/01/07 04:20:14;;;;;;;0.00;0.00;;;;;;;;;;5057018;28;20032;-94
2024/01/07 04:22:40;;;;;;;0.00;0.00;;;;;;;;;;5057032;28;20039;-95
2024/01/07 04:25:10;;;;;;;0.00;0.00;;;;;;;;;;5023973;28;20033;-94
2024/01/07 04:27:35;;;;;;;0.00;0.00;;;;;;;;;;5057029;28;20029;-95
2024/01/07 04:30:01;;;;;;;0.00;0.00;;;;;;;;;;5040388;28;20036;-94
2024/01/07 04:32:27;;;;;;;0.00;0.00;;;;;;;;;;5063555;28;20024;-92
2024/01/07 04:34:53;;;;;;;0.00;0.00;;;;;;;;;;5049370;28;20064;-92
2024/01/07 04:37:18;;;;;;;0.00;0.00;;;;;;;;;;5041686;28;20124;-93
2024/01/07 04:39:45;;;;;;;0.00;0.00;;;;;;;;;;5041252;28;20036;-93
2024/01/07 04:42:11;;;;;;;0.00;0.00;;;;;;;;;;5041551;28;20028;-94
2024/01/07 04:44:36;;;;;;;0.00;0.00;;;;;;;;;;5037798;28;20028;-93
2024/01/07 04:47:02;;;;;;;0.00;0.00;;;;;;;;;;5058372;28;20132;-93
2024/01/07 04:49:27;;;;;;;0.00;0.00;;;;;;;;;;5060774;28;20021;-91
2024/01/07 04:51:53;;;;;;;0.00;0.00;;;;;;;;;;5078926;28;20017;-91
2024/01/07 04:54:19;;;;;;;0.00;0.00;;;;;;;;;;5079610;28;20017;-92
2024/01/07 04:56:44;;;;;;;0.00;0.00;;;;;;;;;;5063117;28;20025;-92
2024/01/07 04:59:10;;;;;;;0.00;0.00;;;;;;;;;;5062573;28;20048;-92
2024/01/07 05:01:35;;;;;;;0.00;0.00;;;;;;;;;;5063056;28;20024;-90
2024/01/07 05:04:02;;;;;;;0.00;0.00;;;;;;;;;;5060917;28;20097;-92
2024/01/07 05:06:27;;;;;;;0.00;0.00;;;;;;;;;;5075468;28;20055;-91
2024/01/07 05:08:53;;;;;;;0.00;0.00;;;;;;;;;;5030822;28;20049;-93
2024/01/07 05:11:21;;;;;;;0.00;0.00;;;;;;;;;;5025452;28;20131;-93
2024/01/07 05:13:47;;;;;;;0.00;0.00;;;;;;;;;;5024755;28;20097;-93
2024/01/07 05:16:22;;;;;;;0.00;0.00;;;;;;;;;;5048473;28;20154;-92
2024/01/07 05:18:48;;;;;;;0.00;0.00;;;;;;;;;;5051416;28;20081;-92
2024/01/07 05:21:20;;;;;;;0.00;0.00;;;;;;;;;;5046445;28;20105;-95
2024/01/07 05:23:45;;;;;;;0.00;0.00;;;;;;;;;;5041630;28;20032;-95
2024/01/07 05:26:11;;;;;;;0.00;0.00;;;;;;;;;;5039754;28;20055;-95
2024/01/07 05:28:37;;;;;;;0.00;0.00;;;;;;;;;;5039268;28;20032;-94
2024/01/07 05:31:03;;;;;;;0.00;0.00;;;;;;;;;;5038778;28;20029;-95
2024/01/07 05:33:29;;;;;;;0.00;0.00;;;;;;;;;;5056779;28;20033;-95
2024/01/07 05:35:54;;;;;;;0.00;0.00;;;;;;;;;;5055733;28;20033;-93
2024/01/07 05:38:20;;;;;;;0.00;0.00;;;;;;;;;;5056022;28;20036;-94
2024/01/07 05:40:45;;;;;;;0.00;0.00;;;;;;;;;;5022973;28;20477;-94
2024/01/07 05:43:11;;;;;;;0.00;0.00;;;;;;;;;;5022989;28;20029;-95
2024/01/07 05:45:36;;;;;;;0.00;0.00;;;;;;;;;;5039644;28;20133;-94
2024/01/07 05:48:02;;;;;;;0.00;0.00;;;;;;;;;;5056286;28;20033;-92
2024/01/07 05:50:30;;;;;;;0.00;0.00;;;;;;;;;;5039502;28;20033;-94
2024/01/07 05:52:55;;;;;;;0.00;0.00;;;;;;;;;;5056142;28;20454;-94
2024/01/07 05:55:21;;;;;;;0.00;0.00;;;;;;;;;;5056817;28;20029;-94
2024/01/07 05:57:46;;;;;;;0.00;0.00;;;;;;;;;;5056421;28;20037;-95
2024/01/07 06:00:12;;;;;;;0.00;0.00;;;;;;;;;;5038971;28;20037;-93
2024/01/07 06:02:38;;;;;;;0.00;0.00;;;;;;;;;;5038894;28;20036;-95
2024/01/07 06:05:04;;;;;;;0.00;0.00;;;;;;;;;;5022655;28;20056;-95
2024/01/07 06:07:29;;;;;;;0.00;0.00;;;;;;;;;;5021953;28;20053;-93
2024/01/07 06:09:55;;;;;;;0.00;0.00;;;;;;;;;;5055157;28;20450;-95
2024/01/07 06:12:20;;;;;;;0.00;0.00;;;;;;;;;;5023140;28;20029;-95
2024/01/07 06:14:46;;;;;;;0.00;0.00;;;;;;;;;;5039360;28;20029;-95
2024/01/07 06:17:12;;;;;;;0.00;0.00;;;;;;;;;;5038534;28;20025;-95
2024/01/07 06:19:37;;;;;;;0.00;0.00;;;;;;;;;;5021811;28;20037;-90
2024/01/07 06:22:03;;;;;;;0.00;0.00;;;;;;;;;;5038895;28;20469;-95
2024/01/07 06:24:28;;;;;;;0.00;0.00;;;;;;;;;;5038692;28;20025;-94
2024/01/07 06:26:54;;;;;;;0.00;0.00;;;;;;;;;;5038686;28;20053;-96
2024/01/07 06:29:19;;;;;;;0.00;0.00;;;;;;;;;;5022541;28;20166;-95
2024/01/07 06:31:45;;;;;;;0.00;0.00;;;;;;;;;;5055792;28;20029;-95
2024/01/07 06:34:13;;;;;;;0.00;0.00;;;;;;;;;;5055592;28;20130;-94
2024/01/07 06:36:39;;;;;;;0.00;0.00;;;;;;;;;;5038147;28;20033;-94
2024/01/07 06:39:05;;;;;;;0.00;0.00;;;;;;;;;;5037595;28;20040;-95
2024/01/07 06:41:30;;;;;;;0.00;0.00;;;;;;;;;;5037883;28;20037;-95
2024/01/07 06:43:56;;;;;;;0.00;0.00;;;;;;;;;;5021918;28;20116;-95
2024/01/07 06:46:22;;;;;;;0.00;0.00;;;;;;;;;;5054497;28;20035;-91
2024/01/07 06:48:48;;;;;;;0.00;0.00;;;;;;;;;;5037823;28;20439;-94
2024/01/07 06:51:15;;;;;;;0.00;0.00;;;;;;;;;;5056964;28;20181;-95
2024/01/07 06:53:40;;;;;;;0.00;0.00;;;;;;;;;;5039293;28;20036;-94
2024/01/07 06:56:06;;;;;;;0.00;0.00;;;;;;;;;;5056664;28;20025;-95
2024/01/07 06:58:32;;;;;;;0.00;0.00;;;;;;;;;;5050267;28;20029;-94
2024/01/07 07:00:58;;;;;;;0.00;0.00;;;;;;;;;;5060955;28;20131;-94
2024/01/07 07:03:23;;;;;;;0.00;0.00;;;;;;;;;;5045332;28;20047;-94
2024/01/07 07:05:49;;;;;;;0.00;0.00;;;;;;;;;;5067757;28;20093;-94
2024/01/07 07:08:15;;;;;;;0.00;0.00;;;;;;;;;;5046426;28;20113;-94
2024/01/07 07:10:44;;;;;;;0.00;0.00;;;;;;;;;;5041920;28;20029;-95
2024/01/07 07:13:10;;;;;;;0.00;0.00;;;;;;;;;;5073733;28;20028;-93
2024/01/07 07:15:36;;;;;;;0.00;0.00;;;;;;;;;;5057464;28;20138;-94
2024/01/07 07:18:01;;;;;;;0.00;0.00;;;;;;;;;;5057006;28;20025;-93
2024/01/07 07:20:27;;;;;;;0.00;0.00;;;;;;;;;;5056819;28;20036;-93
2024/01/07 07:22:55;;;;;;;0.03;0.00;;;;;;;;;;5072629;28;20024;-92
2024/01/07 07:25:24;;;;;;;0.00;0.00;;;;;;;;;;5056856;28;20446;-91
2024/01/07 07:27:49;;;;;;;0.00;0.00;;;;;;;;;;5072824;28;20101;-90
2024/01/07 07:30:15;;;;;;;0.00;0.00;;;;;;;;;;5039450;28;20033;-92
2024/01/07 07:32:41;;;;;;;0.00;0.00;;;;;;;;;;5039597;28;20036;-91
2024/01/07 07:35:07;;;;;;;0.00;0.00;;;;;;;;;;5040034;28;20144;-90
2024/01/07 07:37:33;;;;;;;0.00;0.00;;;;;;;;;;5056046;28;20134;-90
2024/01/07 07:39:58;;;;;;;0.00;0.00;;;;;;;;;;5073152;28;20064;-88
2024/01/07 07:42:24;;;;;;;0.00;0.00;;;;;;;;;;5072474;28;20024;-89
2024/01/07 07:44:49;;;;;;;0.00;0.00;;;;;;;;;;5072595;28;20111;-88
2024/01/07 07:47:15;;;;;;;0.03;0.00;;;;;;;;;;5075414;28;20033;-88
2024/01/07 07:49:40;;;;;;;0.00;0.00;;;;;;;;;;5076984;28;20028;-89
2024/01/07 07:52:12;;;;;;;0.00;0.00;;;;;;;;;;5077623;28;20032;-88
2024/01/07 07:54:38;;;;;;;0.00;0.00;;;;;;;;;;5075949;28;20443;-88
2024/01/07 07:57:03;;;;;;;0.00;0.00;;;;;;;;;;5039634;28;20127;-88
2024/01/07 07:59:29;;;;;;;0.00;0.00;;;;;;;;;;5059880;28;20071;-86
2024/01/07 08:01:54;;;;;;;0.00;0.00;;;;;;;;;;5057298;28;20025;-87
2024/01/07 08:04:20;;;;;;;0.00;0.00;;;;;;;;;;5049844;28;20473;-87
2024/01/07 08:06:46;;;;;;;0.00;0.00;;;;;;;;;;5048305;28;20037;-87
2024/01/07 08:09:12;;;;;;;0.00;0.00;;;;;;;;;;5036491;28;20517;-87
2024/01/07 08:11:37;;;;;;;0.00;0.00;;;;;;;;;;5070063;28;20493;-85
2024/01/07 08:14:05;;;;;;;0.00;0.00;;;;;;;;;;5046022;28;20029;-87
2024/01/07 08:16:31;;;;;;;0.00;0.00;;;;;;;;;;5036927;28;20332;-87
2024/01/07 08:18:57;;;;;;;0.00;0.00;;;;;;;;;;5036436;28;20031;-87
2024/01/07 08:21:23;;;;;;;0.00;0.00;;;;;;;;;;5053194;28;20021;-87
2024/01/07 08:23:49;;;;;;;0.00;0.00;;;;;;;;;;5053085;28;20017;-87
2024/01/07 08:26:20;;;;;;;0.00;0.00;;;;;;;;;;5054237;28;20025;-87
2024/01/07 08:28:46;;;;;;;0.00;0.00;;;;;;;;;;5036040;28;20025;-87
2024/01/07 08:31:11;;;;;;;0.00;0.00;;;;;;;;;;5035962;28;20032;-88
2024/01/07 08:33:37;;;;;;;0.00;0.00;;;;;;;;;;5035632;28;20029;-87
2024/01/07 08:36:02;;;;;;;0.00;0.00;;;;;;;;;;5019202;28;20033;-88
2024/01/07 08:38:28;;;;;;;0.00;0.00;;;;;;;;;;5052125;28;20090;-87
2024/01/07 08:40:53;;;;;;;0.00;0.00;;;;;;;;;;5053299;28;20028;-87
2024/01/07 08:43:19;;;;;;;0.00;0.00;;;;;;;;;;5052957;28;20094;-86
2024/01/07 08:45:44;;;;;;;0.00;0.00;;;;;;;;;;5051962;28;20115;-87
2024/01/07 08:48:12;;;;;;;0.00;0.00;;;;;;;;;;5051647;28;20060;-87
2024/01/07 08:50:37;;;;;;;0.00;0.00;;;;;;;;;;5035660;28;20040;-87
2024/01/07 08:53:03;;;;;;;0.00;0.00;;;;;;;;;;5035254;28;20372;-87
2024/01/07 08:55:29;;;;;;;0.00;0.00;;;;;;;;;;5035189;28;20033;-87
2024/01/07 08:57:54;;;;;;;0.00;0.00;;;;;;;;;;5035104;28;20040;-87
2024/01/07 09:00:21;;;;;;;0.00;0.00;;;;;;;;;;5034964;28;20035;-87
2024/01/07 09:02:47;;;;;;;0.00;0.00;;;;;;;;;;5019223;28;20430;-87
2024/01/07 09:05:13;;;;;;;0.00;0.00;;;;;;;;;;5051946;28;20135;-87
2024/01/07 09:07:38;;;;;;;0.00;0.00;;;;;;;;;;5055474;28;20403;-87
2024/01/07 09:10:08;;;;;;;0.00;0.00;;;;;;;;;;5038970;28;20032;-86
2024/01/07 09:12:34;;;;;;;0.00;0.00;;;;;;;;;;5022915;28;20032;-86
2024/01/07 09:14:59;;;;;;;0.00;0.00;;;;;;;;;;5055161;28;20366;-86
2024/01/07 09:17:25;;;;;;;0.00;0.00;;;;;;;;;;5055074;28;20103;-86
2024/01/07 09:19:50;;;;;;;0.00;0.00;;;;;;;;;;5038652;28;20094;-87
2024/01/07 09:22:16;;;;;;;0.00;0.00;;;;;;;;;;5022114;28;20029;-87
2024/01/07 09:24:41;;;;;;;0.00;0.00;;;;;;;;;;5056178;28;20469;-87
2024/01/07 09:27:09;;;;;;;0.00;0.00;;;;;;;;;;5022046;28;20037;-87
2024/01/07 09:29:35;;;;;;;0.00;0.00;;;;;;;;;;5054908;28;20029;-87
2024/01/07 09:32:00;;;;;;;0.00;0.00;;;;;;;;;;5038235;28;20033;-87
2024/01/07 09:34:26;;;;;;;0.00;0.00;;;;;;;;;;5055938;28;20029;-86
2024/01/07 09:36:51;;;;;;;0.00;0.00;;;;;;;;;;5038217;28;20477;-87
2024/01/07 09:39:17;;;;;;;0.00;0.00;;;;;;;;;;5055882;28;20029;-87
2024/01/07 09:41:42;;;;;;;0.00;0.00;;;;;;;;;;5054715;28;20417;-87
2024/01/07 09:44:08;;;;;;;0.00;0.00;;;;;;;;;;5054524;28;20035;-88
2024/01/07 09:46:34;;;;;;;0.00;0.00;;;;;;;;;;5021417;28;20037;-87
2024/01/07 09:49:00;;;;;;;0.20;0.00;;;;;;;;;;5037838;28;20037;-88
2024/01/07 09:51:25;;;;;;;0.00;0.00;;;;;;;;;;5037720;28;20359;-88
2024/01/07 09:53:54;;;;;;;0.00;0.00;;;;;;;;;;5021276;28;20142;-88
2024/01/07 09:56:26;;;;;;;0.00;0.00;;;;;;;;;;5037955;28;20439;-87
2024/01/07 09:58:51;;;;;;;0.00;0.00;;;;;;;;;;5037783;28;20039;-88
2024/01/07 10:01:21;;;;;;;0.00;0.00;;;;;;;;;;5021309;28;20037;-88
2024/01/07 10:03:46;;;;;;;0.00;0.00;;;;;;;;;;5053928;28;20029;-88
2024/01/07 10:06:12;;;;;;;0.00;0.00;;;;;;;;;;5021361;28;20086;-88
2024/01/07 10:08:38;;;;;;;0.00;0.00;;;;;;;;;;5055213;28;20159;-87
2024/01/07 10:11:04;;;;;;;0.00;0.00;;;;;;;;;;5053981;28;20398;-87
2024/01/07 10:13:30;;;;;;;0.00;0.00;;;;;;;;;;5021159;28;20086;-87
2024/01/07 10:15:56;;;;;;;0.00;0.00;;;;;;;;;;5054707;28;20043;-88
2024/01/07 10:18:22;;;;;;;0.00;0.00;;;;;;;;;;5040832;28;20028;-89
2024/01/07 10:20:48;;;;;;;0.00;0.00;;;;;;;;;;5040690;28;20369;-88
2024/01/07 10:23:17;;;;;;;0.00;0.00;;;;;;;;;;5057170;28;20032;-88
2024/01/07 10:25:43;;;;;;;0.00;0.00;;;;;;;;;;5042625;28;20052;-89
2024/01/07 10:28:08;;;;;;;0.00;0.00;;;;;;;;;;5042191;28;20071;-87
2024/01/07 10:30:38;;;;;;;0.00;0.00;;;;;;;;;;5057355;28;20533;-87
2024/01/07 10:33:06;;;;;;;0.00;0.00;;;;;;;;;;5041010;28;20403;-88
2024/01/07 10:35:36;;;;;;;0.00;0.00;;;;;;;;;;5073612;28;20036;-89
2024/01/07 10:38:02;;;;;;;0.00;0.00;;;;;;;;;;5040915;28;20029;-88
2024/01/07 10:40:33;;;;;;;0.00;0.00;;;;;;;;;;5057716;28;20053;-88
2024/01/07 10:43:00;;;;;;;0.00;0.00;;;;;;;;;;5057916;28;20021;-88
2024/01/07 10:45:25;;;;;;;0.00;0.00;;;;;;;;;;5074584;28;20024;-88
2024/01/07 10:47:54;;;;;;;0.00;0.00;;;;;;;;;;5057230;28;20461;-89
2024/01/07 10:50:21;;;;;;;0.00;0.00;;;;;;;;;;5040649;28;20380;-88
2024/01/07 10:53:07;;;;;;;0.00;0.00;;;;;;;;;;5073775;28;20225;-89
2024/01/07 10:55:38;;;;;;;0.00;0.00;;;;;;;;;;5070150;28;20107;-87
2024/01/07 10:58:04;;;;;;;0.00;0.00;;;;;;;;;;5092588;28;20020;-88
2024/01/07 11:00:34;;;;;;;0.00;0.00;;;;;;;;;;5061771;28;20039;-87
2024/01/07 11:05:58;;;;;;;0.00;0.00;;;;;;;;;;5053521;28;20120;-88
2024/01/07 11:08:33;;;;;;;0.00;0.00;;;;;;;;;;5036800;28;20045;-88
2024/01/07 11:11:03;;;;;;;0.00;0.00;;;;;;;;;;5037488;28;20067;-88
2024/01/07 11:13:37;;;;;;;0.00;0.00;;;;;;;;;;5020901;28;20120;-88
2024/01/07 11:16:09;;;;;;;0.00;0.00;;;;;;;;;;5020273;28;20115;-88
2024/01/07 11:18:40;;;;;;;0.00;0.00;;;;;;;;;;5036994;28;20136;-87
2024/01/07 11:21:06;;;;;;;0.00;0.00;;;;;;;;;;5036702;28;20421;-89
2024/01/07 11:23:39;;;;;;;0.00;0.00;;;;;;;;;;5036227;28;20041;-88
2024/01/07 11:26:11;;;;;;;0.00;0.00;;;;;;;;;;5020614;28;20374;-87
2024/01/07 11:28:44;;;;;;;0.00;0.00;;;;;;;;;;5036367;28;20055;-88
2024/01/07 11:31:09;;;;;;;0.00;0.00;;;;;;;;;;5036096;28;20083;-87
2024/01/07 11:33:38;;;;;;;0.00;0.00;;;;;;;;;;5019764;28;20036;-88
2024/01/07 11:36:07;;;;;;;0.00;0.00;;;;;;;;;;5036449;28;20505;-88
2024/01/07 11:38:34;;;;;;;0.00;0.00;;;;;;;;;;5020240;28;20025;-87
2024/01/07 11:40:59;;;;;;;0.00;0.00;;;;;;;;;;5019226;28;20040;-88
2024/01/07 11:43:25;;;;;;;0.00;0.00;;;;;;;;;;5052403;28;20029;-88
2024/01/07 11:45:51;;;;;;;0.00;0.00;;;;;;;;;;5035667;28;20417;-86
2024/01/07 11:48:18;;;;;;;0.00;0.00;;;;;;;;;;5036063;28;20366;-88
2024/01/07 11:50:44;;;;;;;0.00;0.00;;;;;;;;;;5052959;28;20123;-86
2024/01/07 11:53:13;;;;;;;0.03;0.00;;;;;;;;;;5019937;28;20434;-88
2024/01/07 11:55:41;;;;;;;0.00;0.00;;;;;;;;;;5035810;28;20033;-87
2024/01/07 11:58:07;;;;;;;0.00;0.00;;;;;;;;;;5019887;28;20095;-87
2024/01/07 12:00:33;;;;;;;0.00;0.00;;;;;;;;;;5035922;28;20041;-87
2024/01/07 12:03:02;;;;;;;0.00;0.00;;;;;;;;;;5019558;28;20115;-86
2024/01/07 12:05:28;;;;;;;0.00;0.00;;;;;;;;;;5035847;28;20118;-87
2024/01/07 12:07:54;;;;;;;0.00;0.00;;;;;;;;;;5052299;28;20049;-86
2024/01/07 12:10:20;;;;;;;0.00;0.00;;;;;;;;;;5052766;28;20090;-87
2024/01/07 12:12:46;;;;;;;0.00;0.00;;;;;;;;;;5036284;28;20021;-87
2024/01/07 12:15:12;;;;;;;0.00;0.00;;;;;;;;;;5036262;28;20036;-86
2024/01/07 12:17:41;;;;;;;0.00;0.00;;;;;;;;;;5036524;28;20450;-87
2024/01/07 12:20:08;;;;;;;0.00;0.00;;;;;;;;;;5055442;28;20405;-87
2024/01/07 12:22:51;;;;;;;0.00;0.00;;;;;;;;;;5072237;28;20032;-87
2024/01/07 12:25:23;;;;;;;0.00;0.00;;;;;;;;;;5057582;28;20024;-86
2024/01/07 12:27:52;;;;;;;0.00;0.00;;;;;;;;;;5055400;28;20538;-86
2024/01/07 12:30:18;;;;;;;0.00;0.00;;;;;;;;;;5056451;28;20025;-86
2024/01/07 12:32:44;;;;;;;0.00;0.00;;;;;;;;;;5072401;28;20052;-85
2024/01/07 12:35:10;;;;;;;0.00;0.00;;;;;;;;;;5072485;28;20446;-85
2024/01/07 12:37:37;;;;;;;0.00;0.00;;;;;;;;;;5038708;28;20043;-87
2024/01/07 12:40:04;;;;;;;0.00;0.00;;;;;;;;;;5057919;28;20032;-87
2024/01/07 12:42:29;;;;;;;0.00;0.00;;;;;;;;;;5075784;28;20036;-86
2024/01/07 12:44:55;;;;;;;0.00;0.00;;;;;;;;;;5042754;28;20062;-86
2024/01/07 12:47:20;;;;;;;0.00;0.00;;;;;;;;;;5075804;28;20032;-85
2024/01/07 12:49:46;;;;;;;0.00;0.00;;;;;;;;;;5076098;28;20032;-86
2024/01/07 12:52:11;;;;;;;0.00;0.00;;;;;;;;;;5042927;28;20025;-84
2024/01/07 12:54:38;;;;;;;0.00;0.00;;;;;;;;;;5077182;28;20032;-85
2024/01/07 12:57:04;;;;;;;0.00;0.00;;;;;;;;;;5077174;28;20370;-85
2024/01/07 12:59:29;;;;;;;0.00;0.00;;;;;;;;;;5042548;28;20036;-86
2024/01/07 13:01:55;;;;;;;0.00;0.00;;;;;;;;;;5076598;28;20127;-87
2024/01/07 13:04:20;;;;;;;0.00;0.00;;;;;;;;;;5059276;28;20039;-87
2024/01/07 13:06:46;;;;;;;0.00;0.00;;;;;;;;;;5058720;28;20039;-87
2024/01/07 13:09:12;;;;;;;0.00;0.00;;;;;;;;;;5075609;28;20049;-87
2024/01/07 13:11:37;;;;;;;0.00;0.00;;;;;;;;;;5076434;28;20034;-86
2024/01/07 13:14:03;;;;;;;0.00;0.00;;;;;;;;;;5042083;28;20028;-85
2024/01/07 13:16:28;;;;;;;0.00;0.00;;;;;;;;;;5042592;28;20032;-86
2024/01/07 13:18:55;;;;;;;0.00;0.00;;;;;;;;;;5075421;28;20021;-87
2024/01/07 13:21:20;;;;;;;0.00;0.00;;;;;;;;;;5043276;28;20032;-86
2024/01/07 13:23:47;;;;;;;0.00;0.00;;;;;;;;;;5022557;28;20371;-87
2024/01/07 13:26:13;;;;;;;0.00;0.00;;;;;;;;;;5038718;28;20029;-87
2024/01/07 13:28:39;;;;;;;0.00;0.00;;;;;;;;;;5022534;28;20036;-87
2024/01/07 13:31:06;;;;;;;0.00;0.00;;;;;;;;;;5056441;28;20401;-87
2024/01/07 13:33:32;;;;;;;0.00;0.00;;;;;;;;;;5038799;28;20025;-87
2024/01/07 13:35:57;;;;;;;0.00;0.00;;;;;;;;;;5038508;28;20025;-86
2024/01/07 13:38:23;;;;;;;0.00;0.00;;;;;;;;;;5038563;28;20120;-87
2024/01/07 13:40:48;;;;;;;0.00;0.00;;;;;;;;;;5021796;28;20032;-86
2024/01/07 13:43:15;;;;;;;0.00;0.00;;;;;;;;;;5054884;28;20506;-87
2024/01/07 13:45:40;;;;;;;0.00;0.00;;;;;;;;;;5022123;28;20028;-87
2024/01/07 13:48:07;;;;;;;0.00;0.00;;;;;;;;;;5038503;28;20386;-87
2024/01/07 13:50:33;;;;;;;0.00;0.00;;;;;;;;;;5054414;28;20025;-87
2024/01/07 13:52:58;;;;;;;0.00;0.00;;;;;;;;;;5054379;28;20032;-86
2024/01/07 13:55:24;;;;;;;0.10;0.00;;;;;;;;;;5054186;28;20127;-86
2024/01/07 13:57:49;;;;;;;0.00;0.00;;;;;;;;;;5037886;28;20156;-86
2024/01/07 14:00:18;;;;;;;0.00;0.00;;;;;;;;;;5054400;28;20032;-86
2024/01/07 14:02:45;;;;;;;0.00;0.00;;;;;;;;;;5022294;28;20024;-87
2024/01/07 14:05:11;;;;;;;0.00;0.00;;;;;;;;;;5054297;28;20029;-87
2024/01/07 14:07:37;;;;;;;0.00;0.00;;;;;;;;;;5037288;28;20052;-86
2024/01/07 14:10:04;;;;;;;0.00;0.00;;;;;;;;;;5055584;28;20338;-86
2024/01/07 14:12:32;;;;;;;0.00;0.00;;;;;;;;;;5054455;28;20033;-87
2024/01/07 14:15:01;;;;;;;0.00;0.00;;;;;;;;;;5053965;28;20394;-86
2024/01/07 14:17:26;;;;;;;0.00;0.00;;;;;;;;;;5022419;28;20670;-87
2024/01/07 14:19:53;;;;;;;0.00;0.00;;;;;;;;;;5053840;28;20448;-87
2024/01/07 14:22:24;;;;;;;0.00;0.00;;;;;;;;;;5054438;28;20098;-87
2024/01/07 14:24:49;;;;;;;0.00;0.00;;;;;;;;;;5029058;28;20115;-86
2024/01/07 14:27:15;;;;;;;0.00;0.00;;;;;;;;;;5055143;28;20428;-86
2024/01/07 14:29:42;;;;;;;0.00;0.00;;;;;;;;;;5053700;28;20032;-86
2024/01/07 14:32:07;;;;;;;0.00;0.00;;;;;;;;;;5053725;28;20079;-86
2024/01/07 14:34:33;;;;;;;0.00;0.00;;;;;;;;;;5054262;28;20043;-86
2024/01/07 14:36:59;;;;;;;0.00;0.00;;;;;;;;;;5053840;28;20032;-86
2024/01/07 14:39:25;;;;;;;0.00;0.00;;;;;;;;;;5037495;28;20478;-86
2024/01/07 14:41:51;;;;;;;0.00;0.00;;;;;;;;;;5053997;28;20025;-86